Time;durP1;ratioP1;P1;durP2;ratioP2;P2;SDS_P1;SDS_P2;PMS_P1;PMS_P2;Temp;Humidity;BMP_temperature;BMP_pressure;BME280_temperature;BME280_humidity;BME280_pressure;Samples;Min_cycle;Max_cycle;Signal;HPM_P1;HPM_P2
2021/10/10 06:01:16;;;;;;;0.63;0.63;;;;;;;9.28;100.00;95593.03;5716489;23;20133;-75
2021/10/10 06:03:41;;;;;;;0.70;0.57;;;;;;;9.47;100.00;95592.88;4942719;28;20028;-76
2021/10/10 06:06:07;;;;;;;0.75;0.57;;;;;;;9.53;100.00;95597.47;4940538;28;20084;-79
2021/10/10 06:08:32;;;;;;;1.33;1.10;;;;;;;9.51;100.00;95599.38;4956725;28;20058;-77
2021/10/10 06:10:58;;;;;;;0.60;0.60;;;;;;;9.48;100.00;95595.31;4964968;28;20209;-75
2021/10/10 06:13:23;;;;;;;1.98;1.00;;;;;;;9.59;100.00;95594.28;4935493;28;20031;-75
2021/10/10 06:15:50;;;;;;;3.58;3.28;;;;;;;9.81;100.00;95605.94;4953476;28;20062;-77
2021/10/10 06:18:15;;;;;;;3.20;2.92;;;;;;;9.70;100.00;95595.81;4950222;28;20089;-77
2021/10/10 06:20:41;;;;;;;2.00;1.80;;;;;;;9.56;100.00;95591.16;4936164;28;20469;-77
2021/10/10 06:23:06;;;;;;;4.90;2.30;;;;;;;9.54;100.00;95584.38;4971176;28;20026;-76
2021/10/10 06:25:32;;;;;;;1.80;1.70;;;;;;;9.57;100.00;95587.63;4971947;28;20035;-78
2021/10/10 16:50:21;;;;;;;2.50;2.30;;;;;;;10.10;100.00;95372.75;5111449;27;20788;-78
2021/10/10 16:52:47;;;;;;;1.77;1.67;;;;;;;10.00;100.00;95362.53;5107696;28;20089;-79
2021/10/10 16:55:12;;;;;;;1.45;1.02;;;;;;;10.00;100.00;95367.69;5083778;28;20032;-78
2021/10/10 16:57:38;;;;;;;0.65;0.35;;;;;;;10.01;100.00;95372.72;5089272;28;20429;-77
2021/10/10 17:00:04;;;;;;;1.20;0.45;;;;;;;9.96;100.00;95361.22;5067212;28;20041;-79
2021/10/10 17:02:30;;;;;;;0.30;0.30;;;;;;;9.99;100.00;95376.41;5101285;28;20040;-79
2021/10/10 17:04:56;;;;;;;15.82;1.70;;;;;;;10.06;100.00;95364.47;5074186;28;20027;-79
2021/10/10 17:07:21;;;;;;;0.75;0.65;;;;;;;9.96;100.00;95382.72;5091838;28;20024;-79
2021/10/10 17:09:47;;;;;;;1.15;1.00;;;;;;;10.01;100.00;95379.69;5106892;28;20055;-78
2021/10/10 17:12:16;;;;;;;1.67;1.13;;;;;;;10.08;100.00;95378.88;5095861;28;20026;-80
2021/10/10 17:14:42;;;;;;;1.30;1.20;;;;;;;10.17;100.00;95389.31;5095420;28;20028;-78
2021/10/10 17:17:07;;;;;;;1.30;1.20;;;;;;;10.12;100.00;95394.09;5056355;28;20097;-79
2021/10/10 17:19:33;;;;;;;1.10;0.93;;;;;;;10.05;100.00;95392.13;5077272;28;20043;-78
2021/10/10 17:21:59;;;;;;;1.88;1.00;;;;;;;10.01;100.00;95396.03;5076294;28;20446;-78
2021/10/10 17:24:25;;;;;;;0.88;0.70;;;;;;;9.90;100.00;95398.06;5076118;28;20017;-77
2021/10/10 17:26:53;;;;;;;1.23;0.85;;;;;;;9.96;100.00;95416.38;5076582;28;20028;-78
2021/10/10 17:29:20;;;;;;;1.52;0.90;;;;;;;10.01;100.00;95421.91;5060819;28;20032;-77
2021/10/10 17:31:52;;;;;;;1.85;0.93;;;;;;;10.04;100.00;95420.78;5059795;28;20032;-80
2021/10/10 17:34:18;;;;;;;0.93;0.93;;;;;;;10.03;100.00;95421.72;5060799;28;20392;-78
2021/10/10 17:36:44;;;;;;;2.05;1.00;;;;;;;10.07;100.00;95415.28;5061145;28;20037;-78
2021/10/10 17:39:09;;;;;;;1.10;1.00;;;;;;;10.02;100.00;95417.50;5060118;28;20123;-77
2021/10/10 17:41:36;;;;;;;1.30;1.20;;;;;;;9.98;100.00;95414.44;5087030;28;20016;-77
2021/10/10 17:44:10;;;;;;;1.20;1.10;;;;;;;10.04;100.00;95413.00;5065475;28;20048;-77
2021/10/10 17:46:38;;;;;;;3.13;2.45;;;;;;;10.01;100.00;95402.97;5095570;28;20027;-76
2021/10/10 17:49:04;;;;;;;2.13;1.77;;;;;;;10.02;100.00;95407.97;5071435;28;20074;-76
2021/10/10 17:51:30;;;;;;;1.48;1.33;;;;;;;10.00;100.00;95396.16;5102740;28;20036;-77
2021/10/10 17:53:56;;;;;;;1.40;1.00;;;;;;;10.13;100.00;95393.94;5087355;28;20102;-77
2021/10/10 17:56:21;;;;;;;1.40;0.73;;;;;;;10.12;100.00;95388.91;5106343;28;20028;-77
2021/10/10 18:03:57;;;;;;;1.42;1.02;;;;;;;10.21;100.00;95386.22;5058257;28;20028;-77
2021/10/10 18:11:54;;;;;;;1.75;0.80;;;;;;;10.25;100.00;95366.84;5070479;28;20060;-77
2021/10/10 18:14:20;;;;;;;0.75;0.75;;;;;;;10.21;100.00;95367.31;5071582;28;20186;-77
2021/10/10 18:16:46;;;;;;;1.15;0.70;;;;;;;10.21;100.00;95372.50;5078378;28;20127;-78
2021/10/10 18:19:11;;;;;;;1.55;0.60;;;;;;;10.16;100.00;95372.97;5067539;28;20445;-76
2021/10/10 18:21:38;;;;;;;3.72;3.53;;;;;;;10.15;100.00;95380.88;5072792;28;20039;-77
2021/10/10 18:24:04;;;;;;;2.92;0.93;;;;;;;10.13;100.00;95375.84;5073951;28;20505;-77
2021/10/10 18:29:05;;;;;;;0.63;0.63;;;;;;;10.12;100.00;95363.03;5081884;23;20462;-78
2021/10/10 18:31:30;;;;;;;1.58;0.60;;;;;;;10.17;100.00;95381.53;4954529;28;20122;-77
2021/10/10 18:33:56;;;;;;;0.88;0.60;;;;;;;10.14;100.00;95374.91;4942382;28;20805;-77
2021/10/10 18:36:21;;;;;;;0.90;0.65;;;;;;;10.21;100.00;95385.44;4959657;28;20069;-77
2021/10/10 18:38:47;;;;;;;0.88;0.70;;;;;;;10.18;100.00;95385.75;4956473;28;20117;-77
2021/10/10 18:41:13;;;;;;;0.90;0.60;;;;;;;10.17;100.00;95378.94;4958217;28;20113;-78
2021/10/10 18:43:39;;;;;;;0.60;0.60;;;;;;;10.24;100.00;95385.13;4950649;28;20034;-78
2021/10/10 18:46:05;;;;;;;0.60;0.60;;;;;;;10.21;100.00;95367.31;4972734;28;20034;-78
2021/10/10 18:48:30;;;;;;;0.77;0.60;;;;;;;10.17;100.00;95381.53;4972827;28;20038;-78
2021/10/10 18:50:56;;;;;;;0.57;0.57;;;;;;;10.16;100.00;95372.97;4991483;28;20033;-78
2021/10/10 18:53:21;;;;;;;2.08;0.77;;;;;;;10.19;100.00;95374.41;4972407;28;20030;-78
2021/10/10 18:55:47;;;;;;;0.80;0.80;;;;;;;10.22;100.00;95366.34;4941038;28;20041;-79
2021/10/10 18:58:12;;;;;;;1.05;0.70;;;;;;;10.21;100.00;95364.75;4957473;28;20060;-78
2021/10/10 19:00:38;;;;;;;1.67;0.60;;;;;;;10.21;100.00;95365.53;4953011;28;20029;-77
2021/10/10 19:03:04;;;;;;;1.15;1.02;;;;;;;10.07;100.00;95355.75;4955045;28;20037;-77
2021/10/10 19:05:29;;;;;;;0.70;0.70;;;;;;;10.20;100.00;95373.47;4989189;28;20057;-78
2021/10/10 19:07:55;;;;;;;0.75;0.75;;;;;;;10.17;100.00;95364.25;4976224;28;20446;-80
2021/10/10 19:10:20;;;;;;;0.80;0.70;;;;;;;10.09;100.00;95356.41;4988269;28;20034;-80
2021/10/10 19:12:46;;;;;;;1.13;0.70;;;;;;;10.16;100.00;95372.16;4985033;28;20019;-79
2021/10/10 19:15:11;;;;;;;0.50;0.50;;;;;;;10.24;100.00;95370.38;4957591;28;20443;-78
2021/10/10 19:17:37;;;;;;;0.47;0.47;;;;;;;10.31;100.00;95358.44;4990608;28;20388;-79
2021/10/10 19:20:07;;;;;;;0.57;0.50;;;;;;;10.28;100.00;95339.81;4958116;28;20486;-78
2021/10/10 19:22:33;;;;;;;1.15;0.85;;;;;;;10.34;100.00;95355.53;4958644;28;20494;-79
2021/10/10 19:24:59;;;;;;;0.75;0.50;;;;;;;10.36;100.00;95350.19;4967846;28;20027;-78
2021/10/10 19:27:24;;;;;;;0.70;0.50;;;;;;;10.36;100.00;95338.06;4950161;28;20030;-77
2021/10/10 19:29:50;;;;;;;1.80;0.60;;;;;;;10.33;100.00;95322.84;4939785;28;20041;-76
2021/10/10 19:32:17;;;;;;;0.85;0.50;;;;;;;10.40;100.00;95333.38;4953396;28;20047;-77
2021/10/10 19:34:42;;;;;;;0.50;0.50;;;;;;;10.42;100.00;95327.06;4966064;28;20037;-77
2021/10/10 19:37:08;;;;;;;0.40;0.40;;;;;;;10.32;100.00;95325.59;4936917;28;20027;-77
2021/10/10 19:39:33;;;;;;;0.50;0.50;;;;;;;10.37;100.00;95321.53;4956551;28;20030;-78
2021/10/10 19:41:59;;;;;;;0.60;0.50;;;;;;;10.42;100.00;95328.84;4970794;28;20034;-79
2021/10/10 19:44:24;;;;;;;0.50;0.50;;;;;;;10.40;100.00;95331.59;4938927;28;20026;-79
2021/10/10 19:46:50;;;;;;;0.63;0.60;;;;;;;10.46;100.00;95337.91;4956261;28;20031;-78
2021/10/10 19:49:15;;;;;;;1.35;0.93;;;;;;;10.39;100.00;95324.00;4957594;28;20026;-80
2021/10/10 19:51:41;;;;;;;0.70;0.68;;;;;;;10.34;100.00;95336.63;4955298;28;20026;-78
2021/10/10 19:54:06;;;;;;;3.67;3.10;;;;;;;10.33;100.00;95340.16;4972648;28;20030;-80
2021/10/10 19:56:32;;;;;;;1.77;1.40;;;;;;;10.37;100.00;95344.84;4958938;28;20650;-77
2021/10/10 19:58:57;;;;;;;0.98;0.60;;;;;;;10.37;100.00;95336.28;4960530;28;20034;-79
2021/10/10 20:01:23;;;;;;;0.68;0.68;;;;;;;10.30;100.00;95324.94;4951749;29;20409;-79
2021/10/10 20:03:48;;;;;;;0.75;0.60;;;;;;;10.33;100.00;95322.03;4935160;29;20031;-79
2021/10/10 20:06:14;;;;;;;0.85;0.57;;;;;;;10.35;100.00;95305.38;4920493;29;20128;-78
2021/10/10 20:08:39;;;;;;;1.60;0.55;;;;;;;10.33;100.00;95299.56;4936424;29;20058;-80
2021/10/10 20:11:05;;;;;;;0.70;0.70;;;;;;;10.35;100.00;95300.19;4918662;29;20031;-77
2021/10/10 20:13:33;;;;;;;0.63;0.60;;;;;;;10.33;100.00;95299.56;4950957;29;20031;-78
2021/10/10 20:16:00;;;;;;;0.60;0.60;;;;;;;10.41;100.00;95309.09;4948590;28;20042;-77
2021/10/10 20:18:26;;;;;;;0.50;0.50;;;;;;;10.40;100.00;95313.44;4952747;28;20651;-77
2021/10/10 20:20:52;;;;;;;1.00;0.57;;;;;;;10.35;100.00;95318.31;4968332;28;20027;-79
2021/10/10 20:23:17;;;;;;;0.45;0.40;;;;;;;10.46;100.00;95322.38;4952360;28;20082;-76
2021/10/10 20:25:43;;;;;;;0.50;0.50;;;;;;;10.48;100.00;95312.66;4969791;28;20062;-76
2021/10/10 20:28:08;;;;;;;2.88;0.50;;;;;;;10.41;100.00;95303.91;4968773;28;20050;-77
2021/10/10 20:30:33;;;;;;;0.35;0.30;;;;;;;10.39;100.00;95300.69;4951933;28;20555;-78
2021/10/10 20:33:02;;;;;;;0.63;0.50;;;;;;;10.43;100.00;95314.94;4951908;28;20038;-75
2021/10/10 20:35:28;;;;;;;0.60;0.60;;;;;;;10.45;100.00;95306.03;4953055;28;20088;-77
2021/10/10 20:37:53;;;;;;;1.02;0.65;;;;;;;10.45;100.00;95300.84;4938223;28;20129;-78
2021/10/10 20:40:18;;;;;;;0.50;0.50;;;;;;;10.42;100.00;95295.19;4951758;28;20864;-77
2021/10/10 20:42:44;;;;;;;0.40;0.40;;;;;;;10.42;100.00;95303.75;4951074;28;20034;-80
2021/10/10 20:45:09;;;;;;;0.55;0.55;;;;;;;10.41;100.00;95283.19;4952162;28;20038;-80
2021/10/10 20:47:36;;;;;;;0.57;0.50;;;;;;;10.38;100.00;95279.16;4945914;28;20128;-79
2021/10/10 20:50:02;;;;;;;0.82;0.60;;;;;;;10.39;100.00;95274.78;4954183;28;20419;-78
2021/10/10 20:52:27;;;;;;;0.55;0.50;;;;;;;10.36;100.00;95273.34;4953578;28;20007;-77
2021/10/10 20:54:53;;;;;;;0.63;0.63;;;;;;;10.38;100.00;95265.41;4958706;28;20026;-77
2021/10/10 20:57:18;;;;;;;0.95;0.60;;;;;;;10.42;100.00;95277.88;4953590;28;20038;-77
2021/10/10 20:59:44;;;;;;;1.10;0.50;;;;;;;10.33;100.00;95288.38;4951898;28;20046;-80
2021/10/10 21:02:09;;;;;;;1.77;0.80;;;;;;;10.32;100.00;95290.16;4939812;29;20019;-79
2021/10/10 21:04:35;;;;;;;0.90;0.80;;;;;;;10.32;100.00;95294.53;4947749;28;20419;-76
2021/10/10 21:07:01;;;;;;;0.75;0.63;;;;;;;10.32;100.00;95289.34;4966866;28;20031;-78
2021/10/10 21:09:27;;;;;;;1.75;0.73;;;;;;;10.25;100.00;95288.38;4951770;28;20831;-76
2021/10/10 21:11:53;;;;;;;1.13;0.63;;;;;;;10.23;100.00;95290.31;4951217;28;20488;-77
2021/10/10 21:14:19;;;;;;;0.50;0.50;;;;;;;10.19;100.00;95281.25;4950747;28;20033;-77
2021/10/10 21:16:45;;;;;;;0.82;0.57;;;;;;;10.17;100.00;95280.59;4951118;28;20026;-75
2021/10/10 21:19:10;;;;;;;0.75;0.70;;;;;;;10.11;100.00;95268.28;4967092;28;20058;-76
2021/10/10 21:21:36;;;;;;;0.60;0.52;;;;;;;10.15;100.00;95288.50;4934584;28;20058;-76
2021/10/10 21:24:05;;;;;;;1.23;0.60;;;;;;;10.06;100.00;95281.69;4951019;28;20451;-76
2021/10/10 21:26:30;;;;;;;0.50;0.50;;;;;;;10.00;100.00;95277.97;4935004;28;20361;-77
2021/10/10 21:29:00;;;;;;;0.65;0.65;;;;;;;9.97;100.00;95280.88;4950436;28;20046;-77
2021/10/10 21:33:54;;;;;;;0.65;0.63;;;;;;;10.07;100.00;95276.38;4950800;28;20085;-77
2021/10/10 21:36:20;;;;;;;2.25;0.60;;;;;;;10.08;100.00;95280.53;4936965;28;20030;-78
2021/10/10 21:38:45;;;;;;;0.70;0.70;;;;;;;10.06;100.00;95261.78;4955182;28;20035;-79
2021/10/10 21:41:11;;;;;;;0.60;0.60;;;;;;;10.10;100.00;95258.88;4955281;28;20026;-78
2021/10/10 21:43:36;;;;;;;0.63;0.63;;;;;;;10.06;100.00;95253.22;4938594;28;20655;-77
2021/10/10 21:46:02;;;;;;;0.52;0.50;;;;;;;10.13;100.00;95263.75;4954751;28;20046;-76
2021/10/10 21:48:28;;;;;;;0.50;0.50;;;;;;;10.15;100.00;95252.28;4937751;28;20031;-76
2021/10/10 21:50:53;;;;;;;0.93;0.93;;;;;;;10.20;100.00;95260.41;4970733;28;20034;-77
2021/10/10 21:53:21;;;;;;;2.20;1.35;;;;;;;10.11;100.00;95252.75;4954994;28;20034;-79
2021/10/10 21:55:46;;;;;;;2.00;1.10;;;;;;;10.11;100.00;95265.69;4955368;28;20484;-78
2021/10/10 21:58:11;;;;;;;1.20;1.10;;;;;;;10.00;100.00;95264.22;4954758;28;20037;-77
2021/10/10 22:01:03;;;;;;;1.63;1.45;;;;;;;9.98;100.00;95266.97;4955146;28;20372;-77
2021/10/10 22:03:29;;;;;;;1.30;1.20;;;;;;;9.96;100.00;95253.38;4936574;28;20081;-78
2021/10/10 22:05:54;;;;;;;1.33;1.30;;;;;;;10.01;100.00;95242.56;4954514;28;20404;-77
2021/10/10 22:08:20;;;;;;;1.75;1.65;;;;;;;10.09;100.00;95250.31;4954111;28;20408;-77
2021/10/10 22:10:45;;;;;;;1.65;1.55;;;;;;;10.08;100.00;95235.78;4955089;28;20078;-78
2021/10/10 22:13:11;;;;;;;1.60;1.50;;;;;;;9.95;100.00;95225.09;4939028;28;20023;-78
2021/10/10 22:15:36;;;;;;;1.73;1.63;;;;;;;9.86;100.00;95216.47;4971995;28;20034;-79
2021/10/10 22:18:03;;;;;;;1.25;1.20;;;;;;;10.14;100.00;95217.03;4971270;28;20026;-77
2021/10/10 22:20:31;;;;;;;1.17;1.17;;;;;;;10.26;100.00;95214.94;4939801;28;20057;-78
2021/10/10 22:22:58;;;;;;;1.50;1.40;;;;;;;10.09;100.00;95216.66;4955681;28;20033;-78
2021/10/10 22:25:30;;;;;;;1.30;1.20;;;;;;;10.20;100.00;95206.03;4978317;28;20027;-80
2021/10/10 22:30:28;;;;;;;1.10;1.10;;;;;;;10.13;100.00;95191.28;4958495;28;20118;-78
2021/10/10 22:32:54;;;;;;;1.30;1.20;;;;;;;9.99;100.00;95185.78;4942791;28;20026;-78
2021/10/10 22:35:20;;;;;;;1.50;1.40;;;;;;;10.15;100.00;95189.34;4958273;28;20037;-79
2021/10/10 22:37:47;;;;;;;1.50;1.40;;;;;;;10.08;100.00;95177.03;4940657;28;20042;-80
2021/10/10 22:40:13;;;;;;;1.73;1.20;;;;;;;10.15;100.00;95185.00;4958357;28;20607;-78
2021/10/10 22:42:39;;;;;;;1.48;1.38;;;;;;;10.15;100.00;95185.00;4938859;28;20379;-77
2021/10/10 22:45:05;;;;;;;1.42;1.33;;;;;;;10.14;100.00;95180.00;4954997;28;20031;-78
2021/10/10 22:47:31;;;;;;;1.73;1.20;;;;;;;10.14;100.00;95161.88;4953351;28;20410;-77
2021/10/10 22:49:57;;;;;;;2.00;1.50;;;;;;;10.07;100.00;95159.91;4954198;28;20035;-78
2021/10/10 22:52:22;;;;;;;1.33;1.23;;;;;;;10.14;100.00;95161.88;4954443;28;20030;-78
2021/10/10 22:54:50;;;;;;;1.35;1.25;;;;;;;10.08;100.00;95156.34;4953674;28;20054;-78
2021/10/10 22:57:16;;;;;;;0.95;0.95;;;;;;;10.15;100.00;95169.47;4953653;28;20029;-80
2021/10/10 22:59:41;;;;;;;1.20;1.10;;;;;;;10.08;100.00;95158.94;4954379;28;20030;-78
